createdAt,value
2019-02-11T00:02:14.429Z,4.30
2019-02-11T00:04:44.118Z,4.30
2019-02-11T00:07:14.811Z,4.30
2019-02-11T00:09:52.450Z,4.30
2019-02-11T00:12:33.540Z,4.30
2019-02-11T00:15:03.356Z,4.30
2019-02-11T00:17:33.445Z,4.30
2019-02-11T00:20:05.633Z,4.30
2019-02-11T00:22:36.551Z,4.30
2019-02-11T00:25:06.898Z,4.30
2019-02-11T00:27:39.079Z,4.30
2019-02-11T00:30:10.491Z,4.30
2019-02-11T00:32:40.594Z,4.30
2019-02-11T00:35:11.270Z,4.30
2019-02-11T00:37:41.650Z,4.30
2019-02-11T00:40:11.745Z,4.20
2019-02-11T00:42:41.047Z,4.20
2019-02-11T00:45:12.320Z,4.10
2019-02-11T00:47:42.793Z,4.10
2019-02-11T00:50:13.077Z,4.10
2019-02-11T00:52:44.606Z,4.10
2019-02-11T00:55:16.262Z,4.10
2019-02-11T00:57:47.305Z,4.10
2019-02-11T01:00:19.123Z,4.00
2019-02-11T01:02:49.765Z,4.10
2019-02-11T01:05:21.533Z,4.10
2019-02-11T01:07:53.027Z,4.10
2019-02-11T01:10:22.757Z,4.10
2019-02-11T01:12:53.513Z,4.20
2019-02-11T01:15:23.712Z,4.10
2019-02-11T01:17:55.145Z,4.20
2019-02-11T01:20:25.051Z,4.20
2019-02-11T01:22:56.616Z,4.20
2019-02-11T01:25:28.285Z,4.20
2019-02-11T01:27:59.342Z,4.20
2019-02-11T01:30:31.244Z,4.10
2019-02-11T01:33:05.810Z,4.10
2019-02-11T01:35:37.784Z,4.10
2019-02-11T01:38:09.951Z,4.10
2019-02-11T01:40:40.836Z,4.10
2019-02-11T01:43:11.812Z,4.20
2019-02-11T01:45:42.769Z,4.20
2019-02-11T01:48:13.171Z,4.20
2019-02-11T01:50:44.699Z,4.20
2019-02-11T01:53:14.386Z,4.20
2019-02-11T01:55:46.061Z,4.20
2019-02-11T01:58:16.063Z,4.20
2019-02-11T02:00:46.180Z,4.20
2019-02-11T02:03:17.364Z,4.20
2019-02-11T02:05:52.782Z,4.20
2019-02-11T02:08:23.106Z,4.20
2019-02-11T02:10:53.700Z,4.30
2019-02-11T02:13:26.484Z,4.30
2019-02-11T02:15:55.915Z,4.30
2019-02-11T02:18:26.265Z,4.30
2019-02-11T02:20:55.883Z,4.30
2019-02-11T02:23:26.342Z,4.30
2019-02-11T02:25:57.337Z,4.30
2019-02-11T02:28:28.176Z,4.30
2019-02-11T02:31:00.070Z,4.30
2019-02-11T02:33:29.449Z,4.20
2019-02-11T02:35:59.884Z,4.20
2019-02-11T02:38:34.863Z,4.30
2019-02-11T02:41:14.268Z,4.20
2019-02-11T02:43:44.129Z,4.20
2019-02-11T02:46:14.089Z,4.10
2019-02-11T02:48:45.233Z,3.90
2019-02-11T02:51:17.100Z,3.80
2019-02-11T02:53:54.111Z,3.60
2019-02-11T02:56:31.951Z,3.50
2019-02-11T02:59:31.522Z,3.40
2019-02-11T03:02:40.168Z,3.30
2019-02-11T03:06:06.450Z,3.10
2019-02-11T03:08:43.438Z,3.00
2019-02-11T03:11:56.204Z,2.70
2019-02-11T03:14:36.517Z,2.40
2019-02-11T03:17:18.207Z,2.20
2019-02-11T03:20:01.093Z,2.00
2019-02-11T03:22:48.015Z,2.00
2019-02-11T03:25:18.608Z,2.10
2019-02-11T03:30:45.367Z,2.30
2019-02-11T03:33:25.036Z,2.40
2019-02-11T03:36:29.345Z,2.50
2019-02-11T03:38:58.767Z,2.50
2019-02-11T03:41:31.804Z,2.60
2019-02-11T03:44:31.837Z,2.60
2019-02-11T03:47:03.661Z,2.60
2019-02-11T03:49:45.378Z,2.70
2019-02-11T03:52:47.893Z,2.70
2019-02-11T03:55:23.417Z,2.80
2019-02-11T03:58:05.711Z,2.80
2019-02-11T04:00:36.327Z,2.80
2019-02-11T04:03:12.028Z,2.80
2019-02-11T04:06:07.253Z,2.80
2019-02-11T04:08:40.344Z,2.90
2019-02-11T04:11:10.395Z,2.90
2019-02-11T04:13:40.330Z,3.00
2019-02-11T04:16:11.726Z,3.00
2019-02-11T04:18:42.094Z,3.10
2019-02-11T04:21:14.799Z,3.10
2019-02-11T04:23:44.188Z,3.10
2019-02-11T04:26:14.634Z,3.10
2019-02-11T04:28:49.280Z,3.10
2019-02-11T04:31:18.929Z,3.10
2019-02-11T04:33:48.215Z,3.20
2019-02-11T04:36:31.699Z,3.20
2019-02-11T04:39:02.039Z,3.20
2019-02-11T04:41:56.095Z,3.20
2019-02-11T04:44:38.805Z,3.20
2019-02-11T04:47:08.596Z,3.20
2019-02-11T04:49:40.720Z,3.20
2019-02-11T04:52:12.231Z,3.30
2019-02-11T04:54:41.628Z,3.30
2019-02-11T04:57:12.264Z,3.30
2019-02-11T04:59:44.209Z,3.30
2019-02-11T05:02:14.379Z,3.30
2019-02-11T05:04:45.633Z,3.40
2019-02-11T05:07:16.768Z,3.40
2019-02-11T05:09:48.005Z,3.30
2019-02-11T05:12:18.796Z,3.30
2019-02-11T05:14:48.210Z,3.40
2019-02-11T05:17:18.864Z,3.40
2019-02-11T05:19:48.831Z,3.40
2019-02-11T05:22:23.184Z,3.40
2019-02-11T05:24:52.625Z,3.40
2019-02-11T05:27:24.255Z,3.40
2019-02-11T05:29:53.723Z,3.40
2019-02-11T05:32:26.018Z,3.40
2019-02-11T05:34:55.425Z,3.40
2019-02-11T05:37:25.826Z,3.40
2019-02-11T05:39:57.138Z,3.40
2019-02-11T05:42:27.569Z,3.40
2019-02-11T05:45:25.408Z,3.40
2019-02-11T05:48:01.273Z,3.40
2019-02-11T05:50:31.235Z,3.40
2019-02-11T05:53:03.408Z,3.30
2019-02-11T05:55:34.470Z,3.30
2019-02-11T05:58:06.764Z,3.40
2019-02-11T06:00:36.136Z,3.40
2019-02-11T06:03:06.672Z,3.30
2019-02-11T06:05:36.380Z,3.40
2019-02-11T06:08:07.677Z,3.40
2019-02-11T06:10:58.692Z,3.40
2019-02-11T06:13:29.639Z,3.40
2019-02-11T06:16:00.821Z,3.50
2019-02-11T06:18:31.437Z,3.50
2019-02-11T06:21:02.299Z,3.50
2019-02-11T06:23:33.734Z,3.60
2019-02-11T06:26:04.579Z,3.50
2019-02-11T06:28:35.479Z,3.50
2019-02-11T06:31:06.325Z,3.50
2019-02-11T06:33:43.178Z,3.50
2019-02-11T06:36:21.863Z,3.50
2019-02-11T06:39:04.136Z,3.50
2019-02-11T06:41:34.643Z,3.40
2019-02-11T06:44:06.448Z,3.40
2019-02-11T06:46:37.431Z,3.40
2019-02-11T06:49:54.367Z,3.30
2019-02-11T06:52:25.480Z,3.30
2019-02-11T06:55:15.453Z,3.30
2019-02-11T06:57:52.106Z,3.20
2019-02-11T07:00:28.195Z,3.20
2019-02-11T07:03:04.067Z,3.20
2019-02-11T07:05:35.476Z,3.20
2019-02-11T07:08:05.251Z,3.20
2019-02-11T07:10:41.378Z,3.20
2019-02-11T07:13:16.361Z,3.20
2019-02-11T07:15:49.813Z,3.20
2019-02-11T07:18:24.231Z,3.20
2019-02-11T07:20:54.363Z,3.20
2019-02-11T07:23:23.736Z,3.30
2019-02-11T07:25:54.377Z,3.30
2019-02-11T07:28:57.220Z,3.30
2019-02-11T07:31:46.771Z,3.30
2019-02-11T07:34:23.409Z,3.30
2019-02-11T07:36:55.328Z,3.30
2019-02-11T07:39:25.179Z,3.30
2019-02-11T07:42:19.158Z,3.30
2019-02-11T07:45:07.043Z,3.30
2019-02-11T07:47:37.434Z,3.30
2019-02-11T07:50:08.205Z,3.30
2019-02-11T07:52:41.135Z,3.30
2019-02-11T07:55:11.412Z,3.30
2019-02-11T07:57:42.439Z,3.30
2019-02-11T08:00:16.535Z,3.30
2019-02-11T08:03:13.247Z,3.30
2019-02-11T08:05:40.513Z,3.30
2019-02-11T08:08:13.193Z,3.30
2019-02-11T08:10:44.349Z,3.30
2019-02-11T08:13:19.486Z,3.30
2019-02-11T08:16:01.536Z,3.40
2019-02-11T08:18:33.630Z,3.40
2019-02-11T08:21:03.561Z,3.40
2019-02-11T08:23:41.549Z,3.40
2019-02-11T08:26:13.868Z,3.40
2019-02-11T08:28:46.412Z,3.40
2019-02-11T08:31:18.463Z,3.50
2019-02-11T08:33:48.180Z,3.50
2019-02-11T08:36:18.548Z,3.50
2019-02-11T08:38:54.509Z,3.50
2019-02-11T08:41:25.317Z,3.50
2019-02-11T08:43:55.801Z,3.50
2019-02-11T08:46:28.077Z,3.50
2019-02-11T08:49:02.186Z,3.60
2019-02-11T08:51:32.291Z,3.60
2019-02-11T08:54:03.618Z,3.60
2019-02-11T08:56:33.467Z,3.60
2019-02-11T08:59:04.992Z,3.60
2019-02-11T09:01:34.945Z,3.70
2019-02-11T09:04:04.741Z,3.70
2019-02-11T09:06:35.638Z,3.70
2019-02-11T09:09:07.470Z,3.70
2019-02-11T09:11:52.961Z,3.70
2019-02-11T09:14:44.511Z,3.80
2019-02-11T09:17:14.599Z,3.80
2019-02-11T09:22:35.680Z,3.90
2019-02-11T09:25:10.625Z,4.00
2019-02-11T09:27:40.811Z,4.00
2019-02-11T09:30:17.946Z,4.00
2019-02-11T09:32:48.645Z,4.00
2019-02-11T09:35:18.920Z,4.00
2019-02-11T09:37:52.724Z,4.00
2019-02-11T09:40:22.227Z,3.90
2019-02-11T09:42:54.366Z,3.90
2019-02-11T09:45:44.068Z,3.90
2019-02-11T09:48:13.795Z,3.90
2019-02-11T09:50:48.318Z,3.90
2019-02-11T09:53:17.816Z,4.00
2019-02-11T09:55:48.356Z,4.00
2019-02-11T09:58:20.124Z,4.10
2019-02-11T10:00:51.197Z,4.20
2019-02-11T10:03:23.157Z,4.20
2019-02-11T10:05:56.280Z,4.30
2019-02-11T10:08:29.334Z,4.30
2019-02-11T10:11:00.506Z,4.30
2019-02-11T10:13:29.945Z,4.40
2019-02-11T10:16:02.427Z,4.40
2019-02-11T10:18:36.355Z,4.40
2019-02-11T10:21:08.950Z,4.40
2019-02-11T10:23:43.694Z,4.40
2019-02-11T10:26:15.990Z,4.40
2019-02-11T10:28:47.075Z,4.40
2019-02-11T10:31:17.880Z,4.40
2019-02-11T10:33:51.665Z,4.40
2019-02-11T10:36:21.221Z,4.40
2019-02-11T10:38:52.180Z,4.40
2019-02-11T10:41:21.908Z,4.50
2019-02-11T10:43:51.950Z,4.50
2019-02-11T10:46:23.063Z,4.40
2019-02-11T10:48:54.637Z,4.40
2019-02-11T10:51:28.493Z,4.40
2019-02-11T10:54:00.528Z,4.40
2019-02-11T10:56:30.919Z,4.40
2019-02-11T10:59:00.375Z,4.40
2019-02-11T11:01:45.929Z,4.40
2019-02-11T11:04:17.574Z,4.40
2019-02-11T11:06:53.779Z,4.50
2019-02-11T11:09:26.204Z,4.50
2019-02-11T11:11:56.739Z,4.60
2019-02-11T11:14:27.988Z,4.70
2019-02-11T11:17:05.363Z,4.80
2019-02-11T11:19:36.651Z,4.80
2019-02-11T11:22:18.714Z,4.80
2019-02-11T11:24:58.730Z,4.70
2019-02-11T11:27:28.610Z,4.60
2019-02-11T11:29:59.410Z,4.60
2019-02-11T11:32:30.796Z,4.70
2019-02-11T11:35:03.631Z,4.80
2019-02-11T11:37:34.015Z,4.70
2019-02-11T11:40:04.304Z,4.80
2019-02-11T11:42:35.677Z,4.70
2019-02-11T11:45:07.171Z,4.80
2019-02-11T11:47:41.971Z,4.80
2019-02-11T11:50:11.692Z,4.80
2019-02-11T11:52:42.063Z,4.70
2019-02-11T11:55:14.627Z,4.70
2019-02-11T11:57:44.110Z,4.90
2019-02-11T12:00:20.619Z,5.10
2019-02-11T12:03:01.774Z,5.10
2019-02-11T12:05:25.936Z,5.00
2019-02-11T12:07:57.863Z,4.90
2019-02-11T12:10:28.191Z,4.80
2019-02-11T12:12:59.815Z,4.80
2019-02-11T12:15:29.694Z,4.70
2019-02-11T12:18:01.735Z,4.70
2019-02-11T12:20:33.818Z,4.70
2019-02-11T12:23:06.893Z,4.80
2019-02-11T12:25:36.966Z,4.80
2019-02-11T12:28:08.358Z,4.70
2019-02-11T12:30:40.166Z,4.70
2019-02-11T12:33:16.416Z,4.70
2019-02-11T12:35:48.090Z,4.70
2019-02-11T12:38:35.648Z,4.80
2019-02-11T12:41:05.687Z,4.80
2019-02-11T12:43:41.214Z,4.90
2019-02-11T12:46:16.550Z,5.00
2019-02-11T12:48:52.398Z,5.20
2019-02-11T12:51:34.491Z,5.20
2019-02-11T12:54:05.563Z,5.10
2019-02-11T12:56:36.203Z,5.10
2019-02-11T12:59:08.347Z,5.00
2019-02-11T13:01:42.818Z,4.90
2019-02-11T13:04:14.228Z,4.80
2019-02-11T13:06:47.761Z,4.70
2019-02-11T13:09:20.143Z,4.70
2019-02-11T13:11:53.121Z,4.70
2019-02-11T13:14:24.440Z,4.90
2019-02-11T13:16:53.910Z,4.80
2019-02-11T13:19:29.920Z,4.80
2019-02-11T13:22:01.844Z,4.90
2019-02-11T13:24:34.004Z,5.00
2019-02-11T13:27:04.476Z,5.00
2019-02-11T13:29:40.170Z,4.90
2019-02-11T13:32:10.783Z,4.90
2019-02-11T13:34:45.497Z,4.90
2019-02-11T13:37:16.835Z,5.00
2019-02-11T13:39:47.156Z,5.10
2019-02-11T13:42:19.002Z,5.20
2019-02-11T13:44:53.964Z,5.30
2019-02-11T13:47:24.089Z,5.20
2019-02-11T13:49:54.347Z,5.40
2019-02-11T13:52:23.952Z,5.30
2019-02-11T13:54:58.110Z,5.40
2019-02-11T13:57:28.199Z,5.40
2019-02-11T14:00:00.875Z,5.40
2019-02-11T14:02:32.732Z,5.40
2019-02-11T14:05:04.770Z,5.40
2019-02-11T14:07:35.649Z,5.50
2019-02-11T14:10:05.233Z,5.60
2019-02-11T14:12:38.133Z,5.60
2019-02-11T14:15:09.684Z,5.50
2019-02-11T14:17:43.189Z,5.50
2019-02-11T14:20:23.807Z,5.40
2019-02-11T14:22:54.229Z,5.30
2019-02-11T14:25:42.749Z,5.30
2019-02-11T14:27:59.609Z,5.20
2019-02-11T14:30:29.144Z,5.20
2019-02-11T14:33:02.291Z,5.20
2019-02-11T14:35:37.791Z,5.20
2019-02-11T14:38:11.559Z,5.40
2019-02-11T14:40:46.064Z,5.40
2019-02-11T14:43:15.449Z,5.30
2019-02-11T14:45:44.854Z,5.30
2019-02-11T14:48:26.993Z,5.40
2019-02-11T14:50:55.296Z,5.60
2019-02-11T14:53:36.826Z,5.60
2019-02-11T14:56:10.488Z,5.60
2019-02-11T14:58:40.130Z,5.70
2019-02-11T15:01:13.196Z,5.70
2019-02-11T15:03:50.394Z,5.60
2019-02-11T15:06:19.858Z,5.60
2019-02-11T15:09:01.499Z,5.70
2019-02-11T15:11:30.601Z,5.60
2019-02-11T15:14:03.028Z,5.60
2019-02-11T15:16:35.132Z,5.60
2019-02-11T15:19:24.072Z,5.60
2019-02-11T15:21:53.620Z,5.60
2019-02-11T15:24:43.619Z,5.60
2019-02-11T15:27:18.013Z,5.50
2019-02-11T15:29:52.785Z,5.40
2019-02-11T15:32:25.813Z,5.20
2019-02-11T15:34:55.358Z,5.10
2019-02-11T15:37:26.948Z,5.10
2019-02-11T15:39:56.603Z,5.20
2019-02-11T15:42:38.719Z,5.30
2019-02-11T15:45:09.795Z,5.30
2019-02-11T15:47:48.021Z,5.30
2019-02-11T15:50:25.393Z,5.40
2019-02-11T15:52:59.899Z,5.30
2019-02-11T15:55:51.144Z,5.30
2019-02-11T15:58:26.732Z,5.20
2019-02-11T16:01:11.173Z,5.20
2019-02-11T16:03:47.482Z,5.20
2019-02-11T16:06:16.989Z,5.10
2019-02-11T16:08:50.440Z,5.00
2019-02-11T16:11:22.358Z,5.00
2019-02-11T16:13:57.319Z,4.80
2019-02-11T16:16:27.851Z,4.70
2019-02-11T16:18:57.562Z,4.40
2019-02-11T16:21:29.107Z,4.20
2019-02-11T16:24:00.341Z,4.00
2019-02-11T16:26:32.116Z,3.90
2019-02-11T16:29:09.136Z,3.80
2019-02-11T16:31:42.011Z,3.90
2019-02-11T16:34:15.646Z,3.90
2019-02-11T16:36:49.358Z,3.90
2019-02-11T16:39:27.520Z,3.90
2019-02-11T16:42:03.896Z,4.00
2019-02-11T16:44:41.873Z,4.00
2019-02-11T16:47:12.115Z,4.10
2019-02-11T16:49:45.700Z,4.10
2019-02-11T16:52:15.396Z,4.20
2019-02-11T16:54:50.031Z,4.20
2019-02-11T16:57:21.608Z,4.20
2019-02-11T16:59:54.116Z,4.30
2019-02-11T17:02:37.124Z,4.30
2019-02-11T17:05:21.728Z,4.30
2019-02-11T17:07:57.610Z,4.30
2019-02-11T17:10:35.871Z,4.40
2019-02-11T17:13:33.639Z,4.40
2019-02-11T17:16:09.099Z,4.40
2019-02-11T17:18:38.957Z,4.40
2019-02-11T17:21:17.548Z,4.40
2019-02-11T17:24:02.638Z,4.40
2019-02-11T17:26:36.957Z,4.50
2019-02-11T17:29:28.124Z,4.50
2019-02-11T17:32:18.418Z,4.50
2019-02-11T17:35:13.564Z,4.50
2019-02-11T17:37:48.384Z,4.50
2019-02-11T17:40:24.451Z,4.50
2019-02-11T17:43:01.185Z,4.50
2019-02-11T17:45:33.050Z,4.60
2019-02-11T17:48:33.397Z,4.60
2019-02-11T17:51:10.661Z,4.50
2019-02-11T17:53:40.708Z,4.50
2019-02-11T17:56:13.729Z,4.50
2019-02-11T17:58:46.434Z,4.50
2019-02-11T18:01:18.216Z,4.50
2019-02-11T18:03:53.983Z,4.50
2019-02-11T18:06:25.710Z,4.50
2019-02-11T18:08:57.275Z,4.40
2019-02-11T18:11:36.972Z,4.40
2019-02-11T18:14:30.214Z,4.50
2019-02-11T18:17:00.833Z,4.40
2019-02-11T18:19:38.612Z,4.50
2019-02-11T18:22:14.499Z,4.50
2019-02-11T18:24:46.341Z,4.50
2019-02-11T18:27:21.116Z,4.50
2019-02-11T18:29:57.520Z,4.50
2019-02-11T18:32:29.350Z,4.50
2019-02-11T18:35:01.128Z,4.50
2019-02-11T18:37:30.699Z,4.60
2019-02-11T18:40:03.066Z,4.60
2019-02-11T18:42:34.111Z,4.50
2019-02-11T18:45:06.643Z,4.50
2019-02-11T18:47:38.985Z,4.50
2019-02-11T18:50:12.945Z,4.50
2019-02-11T18:52:46.586Z,4.60
2019-02-11T18:55:21.179Z,4.60
2019-02-11T18:57:53.770Z,4.60
2019-02-11T19:00:27.521Z,4.60
2019-02-11T19:02:59.538Z,4.60
2019-02-11T19:05:29.172Z,4.60
2019-02-11T19:07:58.653Z,4.60
2019-02-11T19:10:35.232Z,4.60
2019-02-11T19:13:09.950Z,4.50
2019-02-11T19:15:40.254Z,4.60
2019-02-11T19:18:15.203Z,4.60
2019-02-11T19:20:55.773Z,4.60
2019-02-11T19:23:21.002Z,4.50
2019-02-11T19:25:52.536Z,4.50
2019-02-11T19:28:28.551Z,4.50
2019-02-11T19:31:03.678Z,4.50
2019-02-11T19:33:33.110Z,4.50
2019-02-11T19:36:04.965Z,4.40
2019-02-11T19:38:41.937Z,4.50
2019-02-11T19:41:13.341Z,4.50
2019-02-11T19:43:42.928Z,4.50
2019-02-11T19:46:12.549Z,4.50
2019-02-11T19:48:43.984Z,4.50
2019-02-11T19:51:14.867Z,4.50
2019-02-11T19:53:44.298Z,4.50
2019-02-11T19:56:14.671Z,4.50
2019-02-11T19:58:45.250Z,4.50
2019-02-11T20:01:17.761Z,4.50
2019-02-11T20:03:49.173Z,4.50
2019-02-11T20:06:19.036Z,4.50
2019-02-11T20:08:53.027Z,4.50
2019-02-11T20:11:24.653Z,4.50
2019-02-11T20:13:54.567Z,4.40
2019-02-11T20:16:26.272Z,4.30
2019-02-11T20:19:02.003Z,3.70
2019-02-11T20:21:38.221Z,3.40
2019-02-11T20:24:10.767Z,3.20
2019-02-11T20:26:43.564Z,3.20
2019-02-11T20:29:17.911Z,3.10
2019-02-11T20:31:53.032Z,3.10
2019-02-11T20:34:26.050Z,3.10
2019-02-11T20:36:58.682Z,3.20
2019-02-11T20:39:35.048Z,3.10
2019-02-11T20:42:06.843Z,3.20
2019-02-11T20:44:39.108Z,3.20
2019-02-11T20:47:10.745Z,3.20
2019-02-11T20:49:40.187Z,3.10
2019-02-11T20:52:09.578Z,3.10
2019-02-11T20:54:40.861Z,3.10
2019-02-11T20:57:13.851Z,3.00
2019-02-11T20:59:46.147Z,3.00
2019-02-11T21:02:15.880Z,3.00
2019-02-11T21:04:45.696Z,3.00
2019-02-11T21:07:15.464Z,3.10
2019-02-11T21:09:45.163Z,3.10
2019-02-11T21:12:14.982Z,3.10
2019-02-11T21:14:44.504Z,3.10
2019-02-11T21:17:14.058Z,3.10
2019-02-11T21:20:00.494Z,3.10
2019-02-11T21:22:31.475Z,3.10
2019-02-11T21:25:01.187Z,3.10
2019-02-11T21:27:30.577Z,3.10
2019-02-11T21:30:02.922Z,3.10
2019-02-11T21:32:36.282Z,3.10
2019-02-11T21:35:11.508Z,3.10
2019-02-11T21:37:44.313Z,3.10
2019-02-11T21:40:16.113Z,3.10
2019-02-11T21:42:47.616Z,3.10
2019-02-11T21:45:18.616Z,3.00
2019-02-11T21:47:48.099Z,3.00
2019-02-11T21:50:26.082Z,2.90
2019-02-11T21:52:49.578Z,2.90
2019-02-11T21:55:19.887Z,2.80
2019-02-11T21:57:50.032Z,2.80
2019-02-11T22:00:19.814Z,2.80
2019-02-11T22:02:51.201Z,2.70
2019-02-11T22:05:23.634Z,2.70
2019-02-11T22:07:58.802Z,2.70
2019-02-11T22:10:31.055Z,2.70
2019-02-11T22:13:06.340Z,2.60
2019-02-11T22:15:44.716Z,2.60
2019-02-11T22:18:21.522Z,2.60
2019-02-11T22:20:57.684Z,2.60
2019-02-11T22:23:30.043Z,2.50
2019-02-11T22:25:59.797Z,2.50
2019-02-11T22:28:30.637Z,2.50
2019-02-11T22:31:01.806Z,2.60
2019-02-11T22:33:32.917Z,2.60
2019-02-11T22:36:03.621Z,2.60
2019-02-11T22:38:35.458Z,2.50
2019-02-11T22:41:06.989Z,2.60
2019-02-11T22:43:37.667Z,2.60
2019-02-11T22:46:13.270Z,2.50
2019-02-11T22:48:44.553Z,2.50
2019-02-11T22:51:14.478Z,2.50
2019-02-11T22:53:44.700Z,2.50
2019-02-11T22:56:15.672Z,2.60
2019-02-11T22:58:48.460Z,2.60
2019-02-11T23:01:21.778Z,2.60
2019-02-11T23:03:51.987Z,2.60
2019-02-11T23:06:21.682Z,2.60
2019-02-11T23:08:51.295Z,2.60
2019-02-11T23:11:21.153Z,2.60
2019-02-11T23:13:51.918Z,2.60
2019-02-11T23:16:22.661Z,2.60
2019-02-11T23:18:53.605Z,2.50
2019-02-11T23:21:30.823Z,2.60
2019-02-11T23:24:00.294Z,2.50
2019-02-11T23:26:30.196Z,2.60
2019-02-11T23:28:59.600Z,2.60
2019-02-11T23:31:34.755Z,2.60
2019-02-11T23:34:06.725Z,2.60
2019-02-11T23:36:36.745Z,2.60
2019-02-11T23:39:14.191Z,2.60
2019-02-11T23:41:43.919Z,2.60
2019-02-11T23:44:15.318Z,2.60
2019-02-11T23:46:47.994Z,2.60
2019-02-11T23:49:19.230Z,2.60
2019-02-11T23:51:49.269Z,2.60
2019-02-11T23:54:19.135Z,2.60
2019-02-11T23:56:48.391Z,2.60
2019-02-11T23:59:17.964Z,2.60
